sensor_id;sensor_type;location;lat;lon;timestamp;P1;durP1;ratioP1;P2;durP2;ratioP2
1995;SDS011;38556;47.068;15.408;2022-08-11T00:01:07;191.60;;;178.50;;
1995;SDS011;38556;47.068;15.408;2022-08-11T00:03:40;193.33;;;180.33;;
1995;SDS011;38556;47.068;15.408;2022-08-11T00:06:10;197.27;;;183.90;;
1995;SDS011;38556;47.068;15.408;2022-08-11T00:08:38;198.00;;;185.20;;
1995;SDS011;38556;47.068;15.408;2022-08-11T00:11:08;193.20;;;180.40;;
1995;SDS011;38556;47.068;15.408;2022-08-11T00:13:38;198.10;;;185.30;;
1995;SDS011;38556;47.068;15.408;2022-08-11T00:16:11;201.77;;;188.13;;
1995;SDS011;38556;47.068;15.408;2022-08-11T00:18:41;195.47;;;182.37;;
1995;SDS011;38556;47.068;15.408;2022-08-11T00:21:11;196.00;;;182.80;;
1995;SDS011;38556;47.068;15.408;2022-08-11T00:23:41;197.63;;;184.70;;
1995;SDS011;38556;47.068;15.408;2022-08-11T00:26:11;201.13;;;188.03;;
1995;SDS011;38556;47.068;15.408;2022-08-11T00:28:40;185.63;;;172.93;;
1995;SDS011;38556;47.068;15.408;2022-08-11T00:31:08;189.20;;;176.30;;
1995;SDS011;38556;47.068;15.408;2022-08-11T00:33:49;185.13;;;172.33;;
1995;SDS011;38556;47.068;15.408;2022-08-11T00:36:18;187.90;;;174.97;;
1995;SDS011;38556;47.068;15.408;2022-08-11T00:38:50;185.53;;;172.53;;
1995;SDS011;38556;47.068;15.408;2022-08-11T00:41:22;189.20;;;176.10;;
1995;SDS011;38556;47.068;15.408;2022-08-11T00:44:06;196.73;;;183.50;;
1995;SDS011;38556;47.068;15.408;2022-08-11T00:46:41;197.17;;;183.77;;
1995;SDS011;38556;47.068;15.408;2022-08-11T00:49:23;197.97;;;184.73;;
1995;SDS011;38556;47.068;15.408;2022-08-11T00:52:07;199.10;;;185.40;;
1995;SDS011;38556;47.068;15.408;2022-08-11T00:54:58;192.50;;;179.57;;
1995;SDS011;38556;47.068;15.408;2022-08-11T00:57:58;199.73;;;186.63;;
1995;SDS011;38556;47.068;15.408;2022-08-11T01:01:11;198.57;;;185.37;;
1995;SDS011;38556;47.068;15.408;2022-08-11T01:04:09;203.80;;;190.60;;
1995;SDS011;38556;47.068;15.408;2022-08-11T01:13:54;207.87;;;194.53;;
1995;SDS011;38556;47.068;15.408;2022-08-11T01:16:57;201.80;;;188.90;;
1995;SDS011;38556;47.068;15.408;2022-08-11T01:25:41;208.73;;;195.43;;
1995;SDS011;38556;47.068;15.408;2022-08-11T01:31:35;198.70;;;185.60;;
1995;SDS011;38556;47.068;15.408;2022-08-11T01:37:20;205.93;;;193.03;;
1995;SDS011;38556;47.068;15.408;2022-08-11T01:40:25;196.90;;;184.10;;
1995;SDS011;38556;47.068;15.408;2022-08-11T01:43:30;200.47;;;187.67;;
1995;SDS011;38556;47.068;15.408;2022-08-11T01:46:38;206.07;;;192.90;;
1995;SDS011;38556;47.068;15.408;2022-08-11T01:49:13;202.90;;;190.03;;
1995;SDS011;38556;47.068;15.408;2022-08-11T01:54:42;201.00;;;188.30;;
1995;SDS011;38556;47.068;15.408;2022-08-11T01:57:26;206.63;;;193.53;;
1995;SDS011;38556;47.068;15.408;2022-08-11T02:00:02;208.00;;;194.93;;
1995;SDS011;38556;47.068;15.408;2022-08-11T02:02:36;211.73;;;198.63;;
1995;SDS011;38556;47.068;15.408;2022-08-11T02:05:17;228.93;;;214.57;;
1995;SDS011;38556;47.068;15.408;2022-08-11T02:08:07;238.50;;;223.10;;
1995;SDS011;38556;47.068;15.408;2022-08-11T02:10:43;242.10;;;226.20;;
1995;SDS011;38556;47.068;15.408;2022-08-11T02:13:35;233.90;;;218.20;;
1995;SDS011;38556;47.068;15.408;2022-08-11T02:16:12;233.90;;;218.30;;
1995;SDS011;38556;47.068;15.408;2022-08-11T02:18:48;233.93;;;218.23;;
1995;SDS011;38556;47.068;15.408;2022-08-11T02:21:38;235.13;;;219.53;;
1995;SDS011;38556;47.068;15.408;2022-08-11T02:24:32;224.87;;;209.47;;
1995;SDS011;38556;47.068;15.408;2022-08-11T02:27:08;229.77;;;214.33;;
1995;SDS011;38556;47.068;15.408;2022-08-11T02:29:44;221.87;;;206.53;;
1995;SDS011;38556;47.068;15.408;2022-08-11T02:32:18;229.40;;;213.43;;
1995;SDS011;38556;47.068;15.408;2022-08-11T02:35:09;228.30;;;212.50;;
1995;SDS011;38556;47.068;15.408;2022-08-11T02:37:49;228.60;;;213.00;;
1995;SDS011;38556;47.068;15.408;2022-08-11T02:40:26;232.13;;;216.73;;
1995;SDS011;38556;47.068;15.408;2022-08-11T02:43:03;229.03;;;213.47;;
1995;SDS011;38556;47.068;15.408;2022-08-11T02:45:38;229.43;;;213.80;;
1995;SDS011;38556;47.068;15.408;2022-08-11T02:48:16;231.87;;;216.37;;
1995;SDS011;38556;47.068;15.408;2022-08-11T02:51:24;229.57;;;214.37;;
1995;SDS011;38556;47.068;15.408;2022-08-11T02:54:04;229.57;;;214.17;;
1995;SDS011;38556;47.068;15.408;2022-08-11T02:56:39;230.80;;;215.50;;
1995;SDS011;38556;47.068;15.408;2022-08-11T02:59:24;225.87;;;210.67;;
1995;SDS011;38556;47.068;15.408;2022-08-11T03:02:32;227.57;;;212.00;;
1995;SDS011;38556;47.068;15.408;2022-08-11T03:05:14;221.73;;;206.63;;
1995;SDS011;38556;47.068;15.408;2022-08-11T03:07:54;233.10;;;217.60;;
1995;SDS011;38556;47.068;15.408;2022-08-11T03:10:52;234.20;;;218.60;;
1995;SDS011;38556;47.068;15.408;2022-08-11T03:13:48;232.50;;;217.17;;
1995;SDS011;38556;47.068;15.408;2022-08-11T03:16:44;238.10;;;222.43;;
1995;SDS011;38556;47.068;15.408;2022-08-11T03:19:21;236.70;;;220.63;;
1995;SDS011;38556;47.068;15.408;2022-08-11T03:22:06;231.03;;;215.93;;
1995;SDS011;38556;47.068;15.408;2022-08-11T03:24:41;227.40;;;212.50;;
1995;SDS011;38556;47.068;15.408;2022-08-11T03:27:28;239.13;;;223.40;;
1995;SDS011;38556;47.068;15.408;2022-08-11T03:30:04;243.20;;;227.77;;
1995;SDS011;38556;47.068;15.408;2022-08-11T03:32:36;238.10;;;222.63;;
1995;SDS011;38556;47.068;15.408;2022-08-11T03:35:36;236.10;;;220.50;;
1995;SDS011;38556;47.068;15.408;2022-08-11T03:38:07;226.77;;;212.07;;
1995;SDS011;38556;47.068;15.408;2022-08-11T03:40:50;225.90;;;211.20;;
1995;SDS011;38556;47.068;15.408;2022-08-11T03:43:57;226.27;;;211.77;;
1995;SDS011;38556;47.068;15.408;2022-08-11T03:46:40;223.20;;;208.83;;
1995;SDS011;38556;47.068;15.408;2022-08-11T03:49:24;212.27;;;198.07;;
1995;SDS011;38556;47.068;15.408;2022-08-11T03:52:04;218.07;;;203.97;;
1995;SDS011;38556;47.068;15.408;2022-08-11T03:54:40;222.57;;;208.27;;
1995;SDS011;38556;47.068;15.408;2022-08-11T03:57:32;229.90;;;215.27;;
1995;SDS011;38556;47.068;15.408;2022-08-11T04:00:27;231.23;;;216.50;;
1995;SDS011;38556;47.068;15.408;2022-08-11T04:06:36;247.43;;;232.63;;
1995;SDS011;38556;47.068;15.408;2022-08-11T04:09:41;249.57;;;234.67;;
1995;SDS011;38556;47.068;15.408;2022-08-11T04:12:46;238.80;;;224.13;;
1995;SDS011;38556;47.068;15.408;2022-08-11T04:15:44;248.70;;;233.70;;
1995;SDS011;38556;47.068;15.408;2022-08-11T04:18:50;243.07;;;228.87;;
1995;SDS011;38556;47.068;15.408;2022-08-11T04:21:52;240.93;;;226.67;;
1995;SDS011;38556;47.068;15.408;2022-08-11T04:27:52;241.13;;;227.33;;
1995;SDS011;38556;47.068;15.408;2022-08-11T04:30:41;245.73;;;231.30;;
1995;SDS011;38556;47.068;15.408;2022-08-11T04:33:31;239.97;;;225.57;;
1995;SDS011;38556;47.068;15.408;2022-08-11T04:36:14;243.30;;;228.63;;
1995;SDS011;38556;47.068;15.408;2022-08-11T04:39:22;240.87;;;226.47;;
1995;SDS011;38556;47.068;15.408;2022-08-11T04:42:06;258.77;;;243.30;;
1995;SDS011;38556;47.068;15.408;2022-08-11T04:51:40;255.90;;;240.60;;
1995;SDS011;38556;47.068;15.408;2022-08-11T04:54:41;243.60;;;229.20;;
1995;SDS011;38556;47.068;15.408;2022-08-11T04:57:40;250.63;;;236.00;;
1995;SDS011;38556;47.068;15.408;2022-08-11T05:00:50;262.70;;;247.70;;
1995;SDS011;38556;47.068;15.408;2022-08-11T05:03:42;250.37;;;235.97;;
1995;SDS011;38556;47.068;15.408;2022-08-11T05:09:39;244.00;;;229.30;;
1995;SDS011;38556;47.068;15.408;2022-08-11T05:12:24;239.87;;;225.57;;
1995;SDS011;38556;47.068;15.408;2022-08-11T05:14:56;241.23;;;226.70;;
1995;SDS011;38556;47.068;15.408;2022-08-11T05:17:44;248.10;;;233.83;;
1995;SDS011;38556;47.068;15.408;2022-08-11T05:20:40;251.83;;;237.40;;
1995;SDS011;38556;47.068;15.408;2022-08-11T05:23:31;256.00;;;241.30;;
1995;SDS011;38556;47.068;15.408;2022-08-11T05:26:20;257.83;;;242.73;;
1995;SDS011;38556;47.068;15.408;2022-08-11T05:32:11;257.23;;;242.37;;
1995;SDS011;38556;47.068;15.408;2022-08-11T05:35:01;250.17;;;235.50;;
1995;SDS011;38556;47.068;15.408;2022-08-11T05:37:33;253.57;;;238.57;;
1995;SDS011;38556;47.068;15.408;2022-08-11T05:40:07;245.13;;;230.77;;
1995;SDS011;38556;47.068;15.408;2022-08-11T05:42:57;239.57;;;225.10;;
1995;SDS011;38556;47.068;15.408;2022-08-11T05:45:44;246.40;;;232.37;;
1995;SDS011;38556;47.068;15.408;2022-08-11T05:48:39;247.17;;;232.27;;
1995;SDS011;38556;47.068;15.408;2022-08-11T05:51:32;240.43;;;226.17;;
1995;SDS011;38556;47.068;15.408;2022-08-11T05:54:17;250.63;;;236.43;;
1995;SDS011;38556;47.068;15.408;2022-08-11T05:57:03;241.33;;;227.73;;
1995;SDS011;38556;47.068;15.408;2022-08-11T05:59:33;235.27;;;221.10;;
1995;SDS011;38556;47.068;15.408;2022-08-11T06:02:02;238.80;;;224.73;;
1995;SDS011;38556;47.068;15.408;2022-08-11T06:04:31;234.23;;;219.63;;
1995;SDS011;38556;47.068;15.408;2022-08-11T06:07:00;239.23;;;224.70;;
1995;SDS011;38556;47.068;15.408;2022-08-11T06:09:31;229.20;;;214.40;;
1995;SDS011;38556;47.068;15.408;2022-08-11T06:12:01;232.03;;;217.53;;
1995;SDS011;38556;47.068;15.408;2022-08-11T06:14:33;236.93;;;222.00;;
1995;SDS011;38556;47.068;15.408;2022-08-11T06:17:06;239.50;;;224.50;;
1995;SDS011;38556;47.068;15.408;2022-08-11T06:19:35;250.73;;;235.47;;
1995;SDS011;38556;47.068;15.408;2022-08-11T06:22:06;237.80;;;223.50;;
1995;SDS011;38556;47.068;15.408;2022-08-11T06:24:37;242.70;;;227.70;;
1995;SDS011;38556;47.068;15.408;2022-08-11T06:27:07;250.57;;;235.77;;
1995;SDS011;38556;47.068;15.408;2022-08-11T06:29:36;252.67;;;238.10;;
1995;SDS011;38556;47.068;15.408;2022-08-11T06:32:12;243.43;;;228.80;;
1995;SDS011;38556;47.068;15.408;2022-08-11T06:34:47;237.50;;;223.73;;
1995;SDS011;38556;47.068;15.408;2022-08-11T06:37:43;250.73;;;235.70;;
1995;SDS011;38556;47.068;15.408;2022-08-11T06:40:25;245.77;;;231.33;;
1995;SDS011;38556;47.068;15.408;2022-08-11T06:43:04;245.10;;;230.70;;
1995;SDS011;38556;47.068;15.408;2022-08-11T06:45:40;239.53;;;223.83;;
1995;SDS011;38556;47.068;15.408;2022-08-11T06:48:17;240.53;;;226.83;;
1995;SDS011;38556;47.068;15.408;2022-08-11T06:50:50;246.93;;;232.43;;
1995;SDS011;38556;47.068;15.408;2022-08-11T06:53:41;249.77;;;234.63;;
1995;SDS011;38556;47.068;15.408;2022-08-11T06:56:10;250.80;;;236.00;;
1995;SDS011;38556;47.068;15.408;2022-08-11T06:58:58;252.10;;;237.70;;
1995;SDS011;38556;47.068;15.408;2022-08-11T07:01:50;244.17;;;229.67;;
1995;SDS011;38556;47.068;15.408;2022-08-11T07:04:28;242.57;;;228.50;;
1995;SDS011;38556;47.068;15.408;2022-08-11T07:07:00;244.47;;;229.73;;
1995;SDS011;38556;47.068;15.408;2022-08-11T07:10:22;243.50;;;229.10;;
1995;SDS011;38556;47.068;15.408;2022-08-11T07:13:17;241.87;;;228.07;;
1995;SDS011;38556;47.068;15.408;2022-08-11T07:16:04;243.17;;;228.97;;
1995;SDS011;38556;47.068;15.408;2022-08-11T07:18:36;240.27;;;226.37;;
1995;SDS011;38556;47.068;15.408;2022-08-11T07:21:26;232.77;;;218.90;;
1995;SDS011;38556;47.068;15.408;2022-08-11T07:24:16;243.00;;;228.80;;
1995;SDS011;38556;47.068;15.408;2022-08-11T07:27:03;242.53;;;228.43;;
1995;SDS011;38556;47.068;15.408;2022-08-11T07:29:55;245.43;;;231.53;;
1995;SDS011;38556;47.068;15.408;2022-08-11T07:32:24;250.50;;;236.00;;
1995;SDS011;38556;47.068;15.408;2022-08-11T07:34:57;242.47;;;228.20;;
1995;SDS011;38556;47.068;15.408;2022-08-11T07:37:30;237.77;;;223.37;;
1995;SDS011;38556;47.068;15.408;2022-08-11T07:40:00;238.80;;;224.70;;
1995;SDS011;38556;47.068;15.408;2022-08-11T07:42:30;232.47;;;218.67;;
1995;SDS011;38556;47.068;15.408;2022-08-11T07:45:03;227.73;;;214.50;;
1995;SDS011;38556;47.068;15.408;2022-08-11T07:47:49;235.43;;;221.23;;
1995;SDS011;38556;47.068;15.408;2022-08-11T07:50:40;234.80;;;220.80;;
1995;SDS011;38556;47.068;15.408;2022-08-11T07:53:27;234.90;;;220.80;;
1995;SDS011;38556;47.068;15.408;2022-08-11T07:55:58;232.13;;;218.33;;
1995;SDS011;38556;47.068;15.408;2022-08-11T07:58:26;218.93;;;205.43;;
1995;SDS011;38556;47.068;15.408;2022-08-11T08:01:17;220.37;;;206.80;;
1995;SDS011;38556;47.068;15.408;2022-08-11T08:04:03;215.53;;;202.07;;
1995;SDS011;38556;47.068;15.408;2022-08-11T08:06:50;221.13;;;207.00;;
1995;SDS011;38556;47.068;15.408;2022-08-11T08:09:36;232.87;;;218.57;;
1995;SDS011;38556;47.068;15.408;2022-08-11T08:12:23;230.23;;;215.63;;
1995;SDS011;38556;47.068;15.408;2022-08-11T08:15:08;256.63;;;241.43;;
1995;SDS011;38556;47.068;15.408;2022-08-11T08:17:56;260.40;;;245.20;;
1995;SDS011;38556;47.068;15.408;2022-08-11T08:20:25;258.33;;;242.97;;
1995;SDS011;38556;47.068;15.408;2022-08-11T08:22:57;255.30;;;239.87;;
1995;SDS011;38556;47.068;15.408;2022-08-11T08:25:26;261.03;;;245.57;;
1995;SDS011;38556;47.068;15.408;2022-08-11T08:27:56;254.23;;;239.30;;
1995;SDS011;38556;47.068;15.408;2022-08-11T08:30:24;257.40;;;242.50;;
1995;SDS011;38556;47.068;15.408;2022-08-11T08:33:12;253.50;;;238.73;;
1995;SDS011;38556;47.068;15.408;2022-08-11T08:35:42;247.30;;;232.23;;
1995;SDS011;38556;47.068;15.408;2022-08-11T08:38:11;248.00;;;233.07;;
1995;SDS011;38556;47.068;15.408;2022-08-11T08:40:41;235.77;;;221.47;;
1995;SDS011;38556;47.068;15.408;2022-08-11T08:43:12;247.30;;;232.20;;
1995;SDS011;38556;47.068;15.408;2022-08-11T08:45:42;256.30;;;241.30;;
1995;SDS011;38556;47.068;15.408;2022-08-11T08:48:12;248.50;;;234.00;;
1995;SDS011;38556;47.068;15.408;2022-08-11T08:50:42;243.57;;;229.47;;
1995;SDS011;38556;47.068;15.408;2022-08-11T08:53:33;244.23;;;230.23;;
1995;SDS011;38556;47.068;15.408;2022-08-11T08:56:01;249.60;;;235.53;;
1995;SDS011;38556;47.068;15.408;2022-08-11T08:58:30;248.03;;;234.30;;
1995;SDS011;38556;47.068;15.408;2022-08-11T09:01:00;250.30;;;235.10;;
1995;SDS011;38556;47.068;15.408;2022-08-11T09:03:29;239.23;;;224.93;;
1995;SDS011;38556;47.068;15.408;2022-08-11T09:05:59;237.20;;;223.40;;
1995;SDS011;38556;47.068;15.408;2022-08-11T09:08:26;237.37;;;223.57;;
1995;SDS011;38556;47.068;15.408;2022-08-11T09:10:58;231.27;;;218.07;;
1995;SDS011;38556;47.068;15.408;2022-08-11T09:13:45;238.97;;;225.07;;
1995;SDS011;38556;47.068;15.408;2022-08-11T09:16:13;239.93;;;226.33;;
1995;SDS011;38556;47.068;15.408;2022-08-11T09:18:42;235.77;;;222.27;;
1995;SDS011;38556;47.068;15.408;2022-08-11T09:21:10;237.80;;;224.10;;
1995;SDS011;38556;47.068;15.408;2022-08-11T09:23:39;244.60;;;230.67;;
1995;SDS011;38556;47.068;15.408;2022-08-11T09:26:27;251.07;;;236.53;;
1995;SDS011;38556;47.068;15.408;2022-08-11T09:29:13;251.53;;;237.57;;
1995;SDS011;38556;47.068;15.408;2022-08-11T09:31:40;238.83;;;225.23;;
1995;SDS011;38556;47.068;15.408;2022-08-11T09:34:08;237.80;;;223.90;;
1995;SDS011;38556;47.068;15.408;2022-08-11T09:36:37;237.87;;;224.03;;
1995;SDS011;38556;47.068;15.408;2022-08-11T09:39:24;232.67;;;219.30;;
1995;SDS011;38556;47.068;15.408;2022-08-11T09:42:12;222.37;;;208.40;;
1995;SDS011;38556;47.068;15.408;2022-08-11T09:44:41;231.03;;;216.53;;
1995;SDS011;38556;47.068;15.408;2022-08-11T09:47:15;232.70;;;219.20;;
1995;SDS011;38556;47.068;15.408;2022-08-11T09:49:45;247.17;;;232.83;;
1995;SDS011;38556;47.068;15.408;2022-08-11T09:52:13;245.67;;;230.60;;
1995;SDS011;38556;47.068;15.408;2022-08-11T09:54:41;248.40;;;234.00;;
1995;SDS011;38556;47.068;15.408;2022-08-11T09:57:10;248.47;;;233.37;;
1995;SDS011;38556;47.068;15.408;2022-08-11T09:59:56;238.17;;;224.17;;
1995;SDS011;38556;47.068;15.408;2022-08-11T10:02:24;237.43;;;223.33;;
1995;SDS011;38556;47.068;15.408;2022-08-11T10:04:54;246.33;;;232.43;;
1995;SDS011;38556;47.068;15.408;2022-08-11T10:07:44;247.17;;;232.43;;
1995;SDS011;38556;47.068;15.408;2022-08-11T10:10:15;252.33;;;238.10;;
1995;SDS011;38556;47.068;15.408;2022-08-11T10:12:50;242.63;;;228.70;;
1995;SDS011;38556;47.068;15.408;2022-08-11T10:15:21;243.83;;;229.37;;
1995;SDS011;38556;47.068;15.408;2022-08-11T10:18:05;247.00;;;233.30;;
1995;SDS011;38556;47.068;15.408;2022-08-11T10:20:52;245.00;;;231.50;;
1995;SDS011;38556;47.068;15.408;2022-08-11T10:23:26;248.20;;;234.30;;
1995;SDS011;38556;47.068;15.408;2022-08-11T10:26:13;255.30;;;241.37;;
1995;SDS011;38556;47.068;15.408;2022-08-11T10:29:03;245.10;;;231.80;;
1995;SDS011;38556;47.068;15.408;2022-08-11T10:31:52;249.20;;;235.60;;
1995;SDS011;38556;47.068;15.408;2022-08-11T10:34:39;252.80;;;238.43;;
1995;SDS011;38556;47.068;15.408;2022-08-11T10:37:08;257.77;;;243.47;;
1995;SDS011;38556;47.068;15.408;2022-08-11T10:39:38;260.20;;;245.83;;
1995;SDS011;38556;47.068;15.408;2022-08-11T10:42:06;265.57;;;251.03;;
1995;SDS011;38556;47.068;15.408;2022-08-11T10:44:53;255.53;;;241.23;;
1995;SDS011;38556;47.068;15.408;2022-08-11T10:47:22;252.17;;;237.80;;
1995;SDS011;38556;47.068;15.408;2022-08-11T10:50:07;248.47;;;233.87;;
1995;SDS011;38556;47.068;15.408;2022-08-11T10:52:54;244.23;;;229.97;;
1995;SDS011;38556;47.068;15.408;2022-08-11T10:55:41;238.90;;;224.60;;
1995;SDS011;38556;47.068;15.408;2022-08-11T10:58:28;237.97;;;223.87;;
1995;SDS011;38556;47.068;15.408;2022-08-11T11:01:17;242.20;;;228.00;;
1995;SDS011;38556;47.068;15.408;2022-08-11T11:03:49;247.73;;;233.30;;
1995;SDS011;38556;47.068;15.408;2022-08-11T11:06:20;241.20;;;227.17;;
1995;SDS011;38556;47.068;15.408;2022-08-11T11:08:56;236.57;;;223.07;;
1995;SDS011;38556;47.068;15.408;2022-08-11T11:11:29;239.73;;;225.43;;
1995;SDS011;38556;47.068;15.408;2022-08-11T11:14:19;230.53;;;215.70;;
1995;SDS011;38556;47.068;15.408;2022-08-11T11:17:06;232.30;;;218.23;;
1995;SDS011;38556;47.068;15.408;2022-08-11T11:19:56;237.90;;;224.20;;
1995;SDS011;38556;47.068;15.408;2022-08-11T11:22:27;231.50;;;217.37;;
1995;SDS011;38556;47.068;15.408;2022-08-11T11:25:22;226.67;;;213.53;;
1995;SDS011;38556;47.068;15.408;2022-08-11T11:28:09;234.07;;;220.70;;
1995;SDS011;38556;47.068;15.408;2022-08-11T11:30:53;241.63;;;227.83;;
1995;SDS011;38556;47.068;15.408;2022-08-11T11:33:41;237.03;;;223.33;;
1995;SDS011;38556;47.068;15.408;2022-08-11T11:36:22;245.83;;;231.93;;
1995;SDS011;38556;47.068;15.408;2022-08-11T11:38:54;239.10;;;225.30;;
1995;SDS011;38556;47.068;15.408;2022-08-11T11:41:23;237.17;;;223.37;;
1995;SDS011;38556;47.068;15.408;2022-08-11T11:43:51;237.10;;;223.10;;
1995;SDS011;38556;47.068;15.408;2022-08-11T11:46:20;233.63;;;220.20;;
1995;SDS011;38556;47.068;15.408;2022-08-11T11:48:50;236.63;;;223.10;;
1995;SDS011;38556;47.068;15.408;2022-08-11T11:51:19;238.90;;;225.30;;
1995;SDS011;38556;47.068;15.408;2022-08-11T11:53:47;247.90;;;233.70;;
1995;SDS011;38556;47.068;15.408;2022-08-11T11:56:15;250.13;;;235.73;;
1995;SDS011;38556;47.068;15.408;2022-08-11T11:58:42;250.53;;;236.43;;
1995;SDS011;38556;47.068;15.408;2022-08-11T12:01:29;248.90;;;235.30;;
1995;SDS011;38556;47.068;15.408;2022-08-11T12:03:59;250.40;;;237.00;;
1995;SDS011;38556;47.068;15.408;2022-08-11T12:06:31;248.90;;;234.83;;
1995;SDS011;38556;47.068;15.408;2022-08-11T12:08:59;242.50;;;228.40;;
1995;SDS011;38556;47.068;15.408;2022-08-11T12:11:27;241.13;;;226.23;;
1995;SDS011;38556;47.068;15.408;2022-08-11T12:14:14;235.43;;;221.87;;
1995;SDS011;38556;47.068;15.408;2022-08-11T12:16:44;242.83;;;229.27;;
1995;SDS011;38556;47.068;15.408;2022-08-11T12:19:16;239.90;;;226.40;;
1995;SDS011;38556;47.068;15.408;2022-08-11T12:21:45;240.37;;;226.37;;
1995;SDS011;38556;47.068;15.408;2022-08-11T12:24:32;250.27;;;235.70;;
1995;SDS011;38556;47.068;15.408;2022-08-11T12:27:18;233.00;;;219.80;;
1995;SDS011;38556;47.068;15.408;2022-08-11T12:29:46;241.40;;;227.30;;
1995;SDS011;38556;47.068;15.408;2022-08-11T12:32:16;233.37;;;219.67;;
1995;SDS011;38556;47.068;15.408;2022-08-11T12:34:46;231.70;;;218.20;;
1995;SDS011;38556;47.068;15.408;2022-08-11T12:37:14;237.53;;;223.73;;
1995;SDS011;38556;47.068;15.408;2022-08-11T12:39:48;228.50;;;215.40;;
1995;SDS011;38556;47.068;15.408;2022-08-11T12:42:35;232.33;;;218.70;;
1995;SDS011;38556;47.068;15.408;2022-08-11T12:45:18;238.47;;;224.97;;
1995;SDS011;38556;47.068;15.408;2022-08-11T12:47:58;242.73;;;228.33;;
1995;SDS011;38556;47.068;15.408;2022-08-11T12:50:51;247.23;;;233.50;;
1995;SDS011;38556;47.068;15.408;2022-08-11T12:53:42;254.03;;;239.83;;
1995;SDS011;38556;47.068;15.408;2022-08-11T12:56:17;253.10;;;238.70;;
1995;SDS011;38556;47.068;15.408;2022-08-11T12:59:03;243.80;;;229.60;;
1995;SDS011;38556;47.068;15.408;2022-08-11T13:01:49;250.17;;;236.23;;
1995;SDS011;38556;47.068;15.408;2022-08-11T13:04:34;255.60;;;241.20;;
1995;SDS011;38556;47.068;15.408;2022-08-11T13:07:22;256.40;;;241.67;;
1995;SDS011;38556;47.068;15.408;2022-08-11T13:09:49;260.57;;;244.67;;
1995;SDS011;38556;47.068;15.408;2022-08-11T13:12:18;261.90;;;246.60;;
1995;SDS011;38556;47.068;15.408;2022-08-11T13:15:06;260.83;;;245.50;;
1995;SDS011;38556;47.068;15.408;2022-08-11T13:17:35;254.80;;;239.60;;
1995;SDS011;38556;47.068;15.408;2022-08-11T13:20:04;244.93;;;230.57;;
1995;SDS011;38556;47.068;15.408;2022-08-11T13:22:35;247.90;;;233.50;;
1995;SDS011;38556;47.068;15.408;2022-08-11T13:25:03;240.03;;;225.73;;
1995;SDS011;38556;47.068;15.408;2022-08-11T13:27:32;261.90;;;247.00;;
1995;SDS011;38556;47.068;15.408;2022-08-11T13:30:01;249.63;;;235.30;;
1995;SDS011;38556;47.068;15.408;2022-08-11T13:32:47;250.50;;;236.00;;
1995;SDS011;38556;47.068;15.408;2022-08-11T13:35:16;260.73;;;246.27;;
1995;SDS011;38556;47.068;15.408;2022-08-11T13:37:46;254.50;;;240.50;;
1995;SDS011;38556;47.068;15.408;2022-08-11T13:40:16;237.63;;;223.90;;
1995;SDS011;38556;47.068;15.408;2022-08-11T13:42:47;236.13;;;221.93;;
1995;SDS011;38556;47.068;15.408;2022-08-11T13:45:15;239.80;;;225.70;;
1995;SDS011;38556;47.068;15.408;2022-08-11T13:47:43;244.10;;;229.93;;
1995;SDS011;38556;47.068;15.408;2022-08-11T13:50:13;245.83;;;231.97;;
1995;SDS011;38556;47.068;15.408;2022-08-11T13:52:41;258.47;;;243.57;;
1995;SDS011;38556;47.068;15.408;2022-08-11T13:55:11;250.57;;;236.30;;
1995;SDS011;38556;47.068;15.408;2022-08-11T13:57:47;260.83;;;246.03;;
1995;SDS011;38556;47.068;15.408;2022-08-11T14:00:17;253.23;;;238.63;;
1995;SDS011;38556;47.068;15.408;2022-08-11T14:02:47;248.13;;;233.83;;
1995;SDS011;38556;47.068;15.408;2022-08-11T14:05:17;253.80;;;239.40;;
1995;SDS011;38556;47.068;15.408;2022-08-11T14:07:51;246.23;;;232.33;;
1995;SDS011;38556;47.068;15.408;2022-08-11T14:10:27;252.77;;;238.47;;
1995;SDS011;38556;47.068;15.408;2022-08-11T14:12:57;250.00;;;235.67;;
1995;SDS011;38556;47.068;15.408;2022-08-11T14:15:44;249.57;;;235.07;;
1995;SDS011;38556;47.068;15.408;2022-08-11T14:18:16;244.40;;;230.40;;
1995;SDS011;38556;47.068;15.408;2022-08-11T14:20:49;238.03;;;224.57;;
1995;SDS011;38556;47.068;15.408;2022-08-11T14:23:37;236.20;;;222.60;;
1995;SDS011;38556;47.068;15.408;2022-08-11T14:26:09;238.27;;;224.67;;
1995;SDS011;38556;47.068;15.408;2022-08-11T14:28:51;244.73;;;231.03;;
1995;SDS011;38556;47.068;15.408;2022-08-11T14:31:21;251.63;;;237.60;;
1995;SDS011;38556;47.068;15.408;2022-08-11T14:33:51;247.57;;;233.93;;
1995;SDS011;38556;47.068;15.408;2022-08-11T14:36:21;245.40;;;231.87;;
1995;SDS011;38556;47.068;15.408;2022-08-11T14:38:51;250.57;;;236.70;;
1995;SDS011;38556;47.068;15.408;2022-08-11T14:41:21;250.27;;;236.73;;
1995;SDS011;38556;47.068;15.408;2022-08-11T14:44:07;245.03;;;231.30;;
1995;SDS011;38556;47.068;15.408;2022-08-11T14:46:53;262.73;;;248.33;;
1995;SDS011;38556;47.068;15.408;2022-08-11T14:49:30;251.63;;;237.37;;
1995;SDS011;38556;47.068;15.408;2022-08-11T14:52:02;253.93;;;239.83;;
1995;SDS011;38556;47.068;15.408;2022-08-11T14:54:32;254.50;;;240.67;;
1995;SDS011;38556;47.068;15.408;2022-08-11T14:57:20;252.27;;;238.57;;
1995;SDS011;38556;47.068;15.408;2022-08-11T14:59:52;241.50;;;228.60;;
1995;SDS011;38556;47.068;15.408;2022-08-11T15:02:21;242.17;;;229.20;;
1995;SDS011;38556;47.068;15.408;2022-08-11T15:05:07;231.70;;;219.10;;
1995;SDS011;38556;47.068;15.408;2022-08-11T15:07:34;238.00;;;224.60;;
1995;SDS011;38556;47.068;15.408;2022-08-11T15:10:04;241.20;;;228.00;;
1995;SDS011;38556;47.068;15.408;2022-08-11T15:12:35;243.77;;;230.87;;
1995;SDS011;38556;47.068;15.408;2022-08-11T15:15:05;254.53;;;241.10;;
1995;SDS011;38556;47.068;15.408;2022-08-11T15:17:52;247.60;;;233.67;;
1995;SDS011;38556;47.068;15.408;2022-08-11T15:20:22;249.13;;;234.97;;
1995;SDS011;38556;47.068;15.408;2022-08-11T15:23:08;245.47;;;232.07;;
1995;SDS011;38556;47.068;15.408;2022-08-11T15:25:55;245.73;;;232.33;;
1995;SDS011;38556;47.068;15.408;2022-08-11T15:28:26;239.97;;;226.97;;
1995;SDS011;38556;47.068;15.408;2022-08-11T15:31:14;247.50;;;234.40;;
1995;SDS011;38556;47.068;15.408;2022-08-11T15:34:10;237.50;;;224.30;;
1995;SDS011;38556;47.068;15.408;2022-08-11T15:36:58;240.33;;;227.17;;
1995;SDS011;38556;47.068;15.408;2022-08-11T15:39:46;239.37;;;226.70;;
1995;SDS011;38556;47.068;15.408;2022-08-11T15:42:33;228.43;;;215.83;;
1995;SDS011;38556;47.068;15.408;2022-08-11T15:45:23;239.97;;;226.70;;
1995;SDS011;38556;47.068;15.408;2022-08-11T15:48:09;233.70;;;220.50;;